Time;durP1;ratioP1;P1;durP2;ratioP2;P2;SDS_P1;SDS_P2;PMS_P1;PMS_P2;Temp;Humidity;BMP_temperature;BMP_pressure;BME280_temperature;BME280_humidity;BME280_pressure;Samples;Min_cycle;Max_cycle;Signal;HPM_P1;HPM_P2
2023/01/04 00:01:43;;;;;;;1999.90;999.90;;;;;;;;;;5033897;28;20049;-59
2023/01/04 00:04:10;;;;;;;1999.90;999.90;;;;;;;;;;5035849;28;20494;-59
2023/01/04 00:06:38;;;;;;;1999.90;999.90;;;;;;;;;;5036432;28;20132;-58
2023/01/04 00:09:04;;;;;;;1999.90;999.90;;;;;;;;;;5036384;28;20140;-59
2023/01/04 00:11:31;;;;;;;1999.90;999.90;;;;;;;;;;5034843;28;20702;-59
2023/01/04 00:13:59;;;;;;;1999.90;999.90;;;;;;;;;;5035171;28;20152;-57
2023/01/04 00:16:27;;;;;;;1999.90;999.90;;;;;;;;;;5034310;28;20155;-60
2023/01/04 00:18:54;;;;;;;1999.90;999.90;;;;;;;;;;5035958;28;20115;-59
2023/01/04 00:21:22;;;;;;;1999.90;999.90;;;;;;;;;;5036942;28;20080;-59
2023/01/04 00:23:51;;;;;;;1999.90;999.90;;;;;;;;;;5033517;28;20099;-59
2023/01/04 00:26:20;;;;;;;1999.90;999.90;;;;;;;;;;5030387;28;20155;-59
2023/01/04 00:28:46;;;;;;;1999.90;999.90;;;;;;;;;;5036789;28;20124;-58
2023/01/04 00:31:14;;;;;;;1999.90;999.90;;;;;;;;;;5036928;28;20136;-58
2023/01/04 00:33:41;;;;;;;1999.90;999.90;;;;;;;;;;5035240;28;20139;-60
2023/01/04 00:36:09;;;;;;;1999.90;999.90;;;;;;;;;;5033753;28;20136;-59
2023/01/04 00:38:36;;;;;;;1999.90;999.90;;;;;;;;;;5034771;28;20143;-59
2023/01/04 00:41:05;;;;;;;1999.90;999.90;;;;;;;;;;5035599;28;20765;-58
2023/01/04 00:43:31;;;;;;;1999.90;999.90;;;;;;;;;;5032986;28;20148;-59
2023/01/04 00:45:58;;;;;;;1999.90;999.90;;;;;;;;;;5032347;28;20141;-59
2023/01/04 00:48:24;;;;;;;1999.90;999.90;;;;;;;;;;5033002;28;20053;-59
2023/01/04 00:50:52;;;;;;;1999.90;999.90;;;;;;;;;;5035544;28;20057;-59
2023/01/04 00:53:18;;;;;;;1999.90;999.90;;;;;;;;;;5034835;28;20160;-57
2023/01/04 00:55:45;;;;;;;1999.90;999.90;;;;;;;;;;5036951;28;20055;-59
2023/01/04 00:58:13;;;;;;;1999.90;999.90;;;;;;;;;;5032785;28;20127;-59
2023/01/04 01:00:40;;;;;;;1999.90;999.90;;;;;;;;;;5031109;28;20160;-59
2023/01/04 01:03:07;;;;;;;1999.90;999.90;;;;;;;;;;5037595;28;20065;-59
2023/01/04 01:05:34;;;;;;;1999.90;999.90;;;;;;;;;;5033048;28;20059;-59
2023/01/04 01:08:23;;;;;;;1999.90;999.90;;;;;;;;;;5034267;28;20136;-60
2023/01/04 01:10:47;;;;;;;1999.90;999.90;;;;;;;;;;5036264;28;20414;-58
2023/01/04 01:13:15;;;;;;;1999.90;999.90;;;;;;;;;;5034915;28;20053;-59
2023/01/04 01:15:42;;;;;;;1999.90;999.90;;;;;;;;;;5030549;28;20140;-59
2023/01/04 01:18:08;;;;;;;1999.90;999.90;;;;;;;;;;5033149;28;20136;-59
2023/01/04 01:20:35;;;;;;;1999.90;999.90;;;;;;;;;;5030208;28;20145;-59
2023/01/04 01:23:01;;;;;;;1999.90;999.90;;;;;;;;;;5030673;28;20143;-59
2023/01/04 01:25:28;;;;;;;1999.90;999.90;;;;;;;;;;5034666;28;20131;-59
2023/01/04 01:27:54;;;;;;;1999.90;999.90;;;;;;;;;;5032788;28;20144;-60
2023/01/04 01:30:22;;;;;;;1999.90;999.90;;;;;;;;;;5037714;28;20478;-59
2023/01/04 01:32:49;;;;;;;1999.90;999.90;;;;;;;;;;5038015;28;20540;-60
2023/01/04 01:35:15;;;;;;;1999.90;999.90;;;;;;;;;;5035101;28;20136;-59
2023/01/04 01:37:42;;;;;;;1999.90;999.90;;;;;;;;;;5035240;28;20057;-59
2023/01/04 01:40:10;;;;;;;1999.90;999.90;;;;;;;;;;5033245;28;20559;-59
2023/01/04 01:42:36;;;;;;;1999.90;999.90;;;;;;;;;;5034419;28;20494;-59
2023/01/04 01:45:09;;;;;;;1999.90;999.90;;;;;;;;;;5037169;28;20145;-59
2023/01/04 01:47:41;;;;;;;1999.90;999.90;;;;;;;;;;5037661;28;20427;-59
2023/01/04 01:50:19;;;;;;;1999.90;999.90;;;;;;;;;;5037087;28;20136;-59
2023/01/04 01:52:46;;;;;;;1999.90;999.90;;;;;;;;;;5041467;28;20458;-59
2023/01/04 01:55:14;;;;;;;1999.90;999.90;;;;;;;;;;5035382;28;20099;-59
2023/01/04 01:57:41;;;;;;;1999.90;999.90;;;;;;;;;;5034991;28;20053;-59
2023/01/04 02:00:10;;;;;;;1999.90;999.90;;;;;;;;;;5036013;28;20072;-59
2023/01/04 02:02:41;;;;;;;1999.90;999.90;;;;;;;;;;5038540;23;20519;-59
2023/01/04 02:05:08;;;;;;;1999.90;999.90;;;;;;;;;;5031731;28;20918;-58
2023/01/04 02:07:36;;;;;;;1999.90;999.90;;;;;;;;;;5031561;28;20136;-57
2023/01/04 02:10:02;;;;;;;1999.90;999.90;;;;;;;;;;5030718;28;20135;-57
2023/01/04 02:12:29;;;;;;;1999.90;999.90;;;;;;;;;;5031784;28;20050;-59
2023/01/04 02:14:55;;;;;;;1999.90;999.90;;;;;;;;;;5031787;28;20132;-59
2023/01/04 02:17:34;;;;;;;1999.90;999.90;;;;;;;;;;5029258;28;20168;-59
2023/01/04 02:20:20;;;;;;;1999.90;999.90;;;;;;;;;;5031047;28;20088;-58
2023/01/04 02:23:24;;;;;;;1999.90;999.90;;;;;;;;;;5031033;28;20141;-58
2023/01/04 02:26:20;;;;;;;1999.90;999.90;;;;;;;;;;5029904;28;20156;-56
2023/01/04 02:29:05;;;;;;;1999.90;999.90;;;;;;;;;;5031025;28;20476;-59
2023/01/04 02:31:35;;;;;;;1999.90;999.90;;;;;;;;;;5030701;28;20088;-60
2023/01/04 02:34:07;;;;;;;1999.90;999.90;;;;;;;;;;5031276;28;20128;-59
2023/01/04 02:36:36;;;;;;;1999.90;999.90;;;;;;;;;;5030748;28;20607;-59
2023/01/04 02:39:12;;;;;;;1999.90;999.90;;;;;;;;;;5030130;28;20042;-59
2023/01/04 02:41:40;;;;;;;;;;;;;;;;;;5030739;28;20137;-59
2023/01/04 02:46:59;;;;;;;1999.90;999.90;;;;;;;;;;5030857;28;20118;-59
2023/01/04 02:52:10;;;;;;;1999.90;999.90;;;;;;;;;;5030981;28;20064;-58
2023/01/04 02:54:38;;;;;;;1999.90;999.90;;;;;;;;;;5030574;28;20136;-59
2023/01/04 02:57:16;;;;;;;1999.90;999.90;;;;;;;;;;5030771;28;20140;-60
2023/01/04 02:59:54;;;;;;;1999.90;999.90;;;;;;;;;;5030425;28;20140;-59
2023/01/04 03:08:23;;;;;;;1999.90;999.90;;;;;;;;;;5028685;28;20095;-57
2023/01/04 03:10:55;;;;;;;1999.90;999.90;;;;;;;;;;5029455;28;20133;-59
2023/01/04 03:13:24;;;;;;;1999.90;999.90;;;;;;;;;;5030026;28;20115;-59
2023/01/04 03:15:54;;;;;;;1999.90;999.90;;;;;;;;;;5030599;28;20493;-60
2023/01/04 03:18:24;;;;;;;1999.90;999.90;;;;;;;;;;5028656;28;20147;-59
2023/01/04 03:20:52;;;;;;;1999.90;999.90;;;;;;;;;;5029842;28;20084;-59
2023/01/04 03:37:49;;;;;;;1999.90;999.90;;;;;;;;;;5029001;28;20059;-59
2023/01/04 03:48:46;;;;;;;1999.90;999.90;;;;;;;;;;5029682;28;20775;-59
2023/01/04 03:51:16;;;;;;;1999.90;999.90;;;;;;;;;;5029399;28;20132;-59
2023/01/04 03:53:53;;;;;;;1999.90;999.90;;;;;;;;;;5029744;28;20137;-59
2023/01/04 03:56:22;;;;;;;1999.90;999.90;;;;;;;;;;5028716;28;20053;-60
2023/01/04 03:58:49;;;;;;;1999.90;999.90;;;;;;;;;;5028336;28;20053;-59
2023/01/04 04:01:17;;;;;;;1999.90;999.90;;;;;;;;;;5029592;28;20140;-59
2023/01/04 04:09:13;;;;;;;1999.90;999.90;;;;;;;;;;5009172;28;20140;-58
2023/01/04 04:11:40;;;;;;;1999.90;999.90;;;;;;;;;;5009775;28;20469;-59
2023/01/04 04:14:06;;;;;;;1999.90;999.90;;;;;;;;;;5009411;28;20140;-58
2023/01/04 04:16:33;;;;;;;1999.90;999.90;;;;;;;;;;5009440;28;20073;-60
2023/01/04 04:18:59;;;;;;;1999.90;999.90;;;;;;;;;;5009912;28;20132;-59
2023/01/04 04:21:26;;;;;;;1999.90;999.90;;;;;;;;;;5009593;28;20145;-60
2023/01/04 04:23:56;;;;;;;1999.90;999.90;;;;;;;;;;5009468;28;20050;-59
2023/01/04 04:26:23;;;;;;;1999.90;999.90;;;;;;;;;;5009602;28;20148;-59
2023/01/04 04:28:49;;;;;;;1999.90;999.90;;;;;;;;;;5009398;28;20077;-58
2023/01/04 04:31:16;;;;;;;1999.90;999.90;;;;;;;;;;5009644;28;20049;-59
2023/01/04 04:33:43;;;;;;;1999.90;999.90;;;;;;;;;;5009365;28;20133;-59
2023/01/04 04:36:09;;;;;;;1999.90;999.90;;;;;;;;;;5009727;28;20145;-59
2023/01/04 04:38:36;;;;;;;1999.90;999.90;;;;;;;;;;5009379;28;20124;-59
2023/01/04 04:43:52;;;;;;;1999.90;999.90;;;;;;;;;;5008027;28;20761;-59
2023/01/04 04:46:19;;;;;;;1999.90;999.90;;;;;;;;;;5008600;28;20141;-59
2023/01/04 04:48:45;;;;;;;1999.90;999.90;;;;;;;;;;5009008;28;20060;-58
2023/01/04 04:51:12;;;;;;;1999.90;999.90;;;;;;;;;;5009560;28;20136;-59
2023/01/04 04:53:38;;;;;;;1999.90;999.90;;;;;;;;;;5009313;28;20564;-59
2023/01/04 04:56:07;;;;;;;1999.90;999.90;;;;;;;;;;5007482;28;20160;-59
2023/01/04 04:58:34;;;;;;;1999.90;999.90;;;;;;;;;;5008852;28;20564;-57
2023/01/04 05:01:01;;;;;;;1999.90;999.90;;;;;;;;;;5009288;28;20081;-59
2023/01/04 05:03:27;;;;;;;1999.90;999.90;;;;;;;;;;5026978;28;20049;-59
2023/01/04 05:05:54;;;;;;;1999.90;999.90;;;;;;;;;;5032411;28;20140;-59
2023/01/04 05:08:20;;;;;;;1999.90;999.90;;;;;;;;;;5032790;28;20165;-59
2023/01/04 05:10:47;;;;;;;1999.90;999.90;;;;;;;;;;5031448;28;20140;-60
2023/01/04 05:13:14;;;;;;;1999.90;999.90;;;;;;;;;;5032686;28;20136;-59
2023/01/04 05:15:43;;;;;;;1999.90;999.90;;;;;;;;;;5032165;28;20084;-58
2023/01/04 05:18:11;;;;;;;1999.90;999.90;;;;;;;;;;5031284;28;20081;-59
2023/01/04 05:20:38;;;;;;;1999.90;999.90;;;;;;;;;;5032152;28;20133;-59
2023/01/04 05:23:05;;;;;;;1999.90;999.90;;;;;;;;;;5032177;28;20555;-59
2023/01/04 05:25:31;;;;;;;1999.90;999.90;;;;;;;;;;5032313;28;20132;-59
2023/01/04 05:27:58;;;;;;;1999.90;999.90;;;;;;;;;;5032130;28;20136;-58
2023/01/04 05:33:11;;;;;;;1999.90;999.90;;;;;;;;;;5031950;28;20151;-59
2023/01/04 05:35:37;;;;;;;1999.90;999.90;;;;;;;;;;5032259;28;20423;-57
2023/01/04 05:38:04;;;;;;;1999.90;999.90;;;;;;;;;;5032264;28;20082;-59
2023/01/04 05:40:31;;;;;;;1999.90;999.90;;;;;;;;;;5032021;28;20115;-59
2023/01/04 05:42:57;;;;;;;1999.90;999.90;;;;;;;;;;5032244;28;20136;-60
2023/01/04 05:45:24;;;;;;;1999.90;999.90;;;;;;;;;;5030691;28;20140;-59
2023/01/04 05:47:52;;;;;;;1999.90;999.90;;;;;;;;;;5032379;28;20153;-59
2023/01/04 05:50:19;;;;;;;1999.90;999.90;;;;;;;;;;5032009;28;20495;-58
2023/01/04 05:52:46;;;;;;;1999.90;999.90;;;;;;;;;;5032298;28;20168;-59
2023/01/04 05:55:13;;;;;;;1999.90;999.90;;;;;;;;;;5032236;28;20136;-59
2023/01/04 05:57:39;;;;;;;1999.90;999.90;;;;;;;;;;5030908;28;20153;-59
2023/01/04 06:00:07;;;;;;;1999.90;999.90;;;;;;;;;;5031293;28;20140;-59
2023/01/04 06:02:34;;;;;;;1999.90;999.90;;;;;;;;;;5031531;28;20073;-59
2023/01/04 06:05:02;;;;;;;1999.90;999.90;;;;;;;;;;5031924;28;20141;-59
2023/01/04 06:07:29;;;;;;;1999.90;999.90;;;;;;;;;;5029832;28;20132;-60
2023/01/04 06:09:55;;;;;;;1999.90;999.90;;;;;;;;;;5031480;28;20141;-58
2023/01/04 06:12:22;;;;;;;1999.90;999.90;;;;;;;;;;5031999;28;20237;-59
2023/01/04 06:14:48;;;;;;;1999.90;999.90;;;;;;;;;;5030142;28;20140;-59
2023/01/04 06:17:15;;;;;;;1999.90;999.90;;;;;;;;;;5031810;28;20416;-59
2023/01/04 06:19:41;;;;;;;1999.90;999.90;;;;;;;;;;5031152;28;20073;-59
2023/01/04 06:22:10;;;;;;;1999.90;999.90;;;;;;;;;;5031483;28;20128;-59
2023/01/04 06:24:36;;;;;;;1999.90;999.90;;;;;;;;;;5029870;28;20095;-59
2023/01/04 06:27:03;;;;;;;1999.90;999.90;;;;;;;;;;5031199;28;20132;-60
2023/01/04 06:29:30;;;;;;;1999.90;999.90;;;;;;;;;;5031498;28;20103;-59
2023/01/04 06:31:56;;;;;;;1999.90;999.90;;;;;;;;;;5029815;28;20140;-59
2023/01/04 06:34:23;;;;;;;1999.90;999.90;;;;;;;;;;5030796;28;20144;-59
2023/01/04 06:36:49;;;;;;;1999.90;999.90;;;;;;;;;;5031192;28;20469;-59
2023/01/04 06:39:17;;;;;;;1999.90;999.90;;;;;;;;;;5030800;28;20045;-60
2023/01/04 06:41:44;;;;;;;1999.90;999.90;;;;;;;;;;5030627;28;20046;-59
2023/01/04 06:44:10;;;;;;;1999.90;999.90;;;;;;;;;;5031085;28;20145;-58
2023/01/04 06:46:37;;;;;;;1999.90;999.90;;;;;;;;;;5030849;28;20148;-59
2023/01/04 06:49:03;;;;;;;1999.90;999.90;;;;;;;;;;5030880;28;20140;-59
2023/01/04 06:51:30;;;;;;;1999.90;999.90;;;;;;;;;;5030867;28;20160;-59
2023/01/04 06:53:56;;;;;;;1999.90;999.90;;;;;;;;;;5030695;28;20145;-59
2023/01/04 06:56:24;;;;;;;1999.90;999.90;;;;;;;;;;5030700;28;20726;-59
2023/01/04 06:58:51;;;;;;;1999.90;999.90;;;;;;;;;;5030781;28;20157;-59
2023/01/04 07:01:17;;;;;;;1999.90;999.90;;;;;;;;;;5030556;28;20099;-60
2023/01/04 07:03:44;;;;;;;1999.90;999.90;;;;;;;;;;5029329;28;20401;-59
2023/01/04 07:06:10;;;;;;;1999.90;999.90;;;;;;;;;;5030240;28;20168;-58
2023/01/04 07:08:37;;;;;;;1999.90;999.90;;;;;;;;;;5030220;28;20136;-59
2023/01/04 07:11:03;;;;;;;1999.90;999.90;;;;;;;;;;5030593;28;20088;-60
2023/01/04 07:13:31;;;;;;;1999.90;999.90;;;;;;;;;;5029899;28;20143;-59
2023/01/04 07:15:58;;;;;;;1999.90;999.90;;;;;;;;;;5030062;28;20139;-59
2023/01/04 07:18:24;;;;;;;1999.90;999.90;;;;;;;;;;5030633;28;20430;-59
2023/01/04 07:20:51;;;;;;;1999.90;999.90;;;;;;;;;;5029780;28;20128;-58
2023/01/04 07:23:17;;;;;;;1999.90;999.90;;;;;;;;;;5029885;28;20046;-59
2023/01/04 07:25:44;;;;;;;1999.90;999.90;;;;;;;;;;5029922;28;20132;-59
2023/01/04 07:28:10;;;;;;;1999.90;999.90;;;;;;;;;;5030014;28;20140;-60
2023/01/04 07:30:38;;;;;;;1999.90;999.90;;;;;;;;;;5030093;28;20548;-59
2023/01/04 07:33:05;;;;;;;1999.90;999.90;;;;;;;;;;5029317;28;20128;-58
2023/01/04 07:35:31;;;;;;;1999.90;999.90;;;;;;;;;;5028421;28;20141;-59
2023/01/04 07:37:58;;;;;;;1999.90;999.90;;;;;;;;;;5030247;28;20538;-58
2023/01/04 07:40:24;;;;;;;1999.90;999.90;;;;;;;;;;5027819;28;20131;-57
2023/01/04 07:42:55;;;;;;;1999.90;999.90;;;;;;;;;;5029845;28;20184;-55
2023/01/04 07:45:22;;;;;;;1999.90;999.90;;;;;;;;;;5029765;28;20053;-59
2023/01/04 07:47:50;;;;;;;1999.90;999.90;;;;;;;;;;5030079;28;20107;-59
2023/01/04 07:50:16;;;;;;;1999.90;999.90;;;;;;;;;;5028116;28;20071;-59
2023/01/04 07:52:43;;;;;;;1999.90;999.90;;;;;;;;;;5029908;28;20128;-59
2023/01/04 07:55:10;;;;;;;1999.90;999.90;;;;;;;;;;5029856;28;20165;-58
2023/01/04 07:57:36;;;;;;;1999.90;999.90;;;;;;;;;;5029738;28;20136;-58
2023/01/04 08:00:04;;;;;;;1999.90;999.90;;;;;;;;;;5029179;28;20129;-59
2023/01/04 08:02:30;;;;;;;1999.90;999.90;;;;;;;;;;5029173;28;20069;-59
2023/01/04 08:04:58;;;;;;;1999.90;999.90;;;;;;;;;;5029396;28;20148;-60
2023/01/04 08:07:25;;;;;;;1999.90;999.90;;;;;;;;;;5028512;28;20665;-57
2023/01/04 08:09:51;;;;;;;1999.90;999.90;;;;;;;;;;5027033;28;20053;-59
2023/01/04 08:12:17;;;;;;;1999.90;999.90;;;;;;;;;;5029598;28;20545;-59
2023/01/04 08:14:44;;;;;;;1999.90;999.90;;;;;;;;;;5029342;28;20063;-59
2023/01/04 08:17:10;;;;;;;1999.90;999.90;;;;;;;;;;5028818;28;20140;-59
2023/01/04 08:19:37;;;;;;;1999.90;999.90;;;;;;;;;;5029381;28;20492;-59
2023/01/04 08:22:05;;;;;;;1999.90;999.90;;;;;;;;;;5027899;28;20103;-60
2023/01/04 08:24:31;;;;;;;1999.90;999.90;;;;;;;;;;5029192;28;20132;-59
2023/01/04 08:26:59;;;;;;;1999.90;999.90;;;;;;;;;;5027884;28;20050;-59
2023/01/04 08:29:25;;;;;;;1999.90;999.90;;;;;;;;;;5028546;28;20046;-58
2023/01/04 08:31:52;;;;;;;1999.90;999.90;;;;;;;;;;5029263;28;20077;-60
2023/01/04 08:34:18;;;;;;;1999.90;999.90;;;;;;;;;;5029155;28;20136;-60
2023/01/04 08:36:47;;;;;;;1999.90;999.90;;;;;;;;;;5029248;28;20730;-59
2023/01/04 08:39:15;;;;;;;1999.90;999.90;;;;;;;;;;5033040;28;20048;-60
2023/01/04 08:41:52;;;;;;;1999.90;999.90;;;;;;;;;;5032547;28;20051;-58
2023/01/04 08:44:19;;;;;;;1999.90;999.90;;;;;;;;;;5033155;28;20053;-58
2023/01/04 08:46:46;;;;;;;1999.90;999.90;;;;;;;;;;5033141;28;20104;-59
2023/01/04 08:49:12;;;;;;;1999.90;999.90;;;;;;;;;;5033272;28;20095;-59
2023/01/04 08:51:39;;;;;;;1999.90;999.90;;;;;;;;;;5033508;28;20441;-59
2023/01/04 08:54:06;;;;;;;1999.90;999.90;;;;;;;;;;5033090;28;20481;-59
2023/01/04 08:56:34;;;;;;;1999.90;999.90;;;;;;;;;;5032194;28;20132;-59
2023/01/04 08:59:01;;;;;;;1999.90;999.90;;;;;;;;;;5032489;28;20152;-58
2023/01/04 09:01:28;;;;;;;1999.90;999.90;;;;;;;;;;5032807;28;20053;-59
2023/01/04 09:03:56;;;;;;;1999.90;999.90;;;;;;;;;;5032423;28;20107;-59
2023/01/04 09:06:23;;;;;;;1999.90;999.90;;;;;;;;;;5031955;28;20472;-59
2023/01/04 09:08:49;;;;;;;1999.90;999.90;;;;;;;;;;5032410;28;20125;-59
2023/01/04 09:11:17;;;;;;;1999.90;999.90;;;;;;;;;;5032864;28;20456;-59
2023/01/04 09:13:46;;;;;;;1999.90;999.90;;;;;;;;;;5032252;28;20046;-59
2023/01/04 09:16:14;;;;;;;1999.90;999.90;;;;;;;;;;5032743;28;20133;-59
2023/01/04 09:18:40;;;;;;;1999.90;999.90;;;;;;;;;;5032375;28;20049;-60
2023/01/04 09:21:09;;;;;;;1999.90;999.90;;;;;;;;;;5032679;28;20134;-59
2023/01/04 09:23:36;;;;;;;1999.90;999.90;;;;;;;;;;5031633;28;20531;-57
2023/01/04 09:26:05;;;;;;;1999.90;999.90;;;;;;;;;;5032372;28;20159;-60
2023/01/04 09:28:32;;;;;;;1999.90;999.90;;;;;;;;;;5032385;28;20050;-60
2023/01/04 09:31:04;;;;;;;1999.90;999.90;;;;;;;;;;5024491;28;20055;-60
2023/01/04 09:33:31;;;;;;;1999.90;999.90;;;;;;;;;;5032424;28;20264;-60
2023/01/04 09:36:01;;;;;;;1999.90;999.90;;;;;;;;;;5031992;28;20801;-59
2023/01/04 09:38:27;;;;;;;1999.90;999.90;;;;;;;;;;5031635;28;20133;-59
2023/01/04 09:41:01;;;;;;;1999.90;999.90;;;;;;;;;;5031937;28;20148;-60
2023/01/04 09:43:29;;;;;;;1999.90;999.90;;;;;;;;;;5031859;28;20053;-60
2023/01/04 09:46:02;;;;;;;1999.90;999.90;;;;;;;;;;5031995;28;20140;-58
2023/01/04 09:48:29;;;;;;;1999.90;999.90;;;;;;;;;;5030334;28;20140;-60
2023/01/04 09:50:58;;;;;;;1999.90;999.90;;;;;;;;;;5030529;28;20045;-60
2023/01/04 09:53:28;;;;;;;1999.90;999.90;;;;;;;;;;5031958;28;20045;-57
2023/01/04 09:55:57;;;;;;;1999.90;999.90;;;;;;;;;;5032480;28;20170;-58
2023/01/04 09:58:26;;;;;;;1999.90;999.90;;;;;;;;;;5031898;28;20574;-58
2023/01/04 10:01:02;;;;;;;1999.90;999.90;;;;;;;;;;5031880;28;20084;-60
2023/01/04 10:03:31;;;;;;;1999.90;999.90;;;;;;;;;;5030602;28;20080;-59
2023/01/04 10:05:58;;;;;;;1999.90;999.90;;;;;;;;;;5031525;28;20085;-60
2023/01/04 10:08:24;;;;;;;1999.90;999.90;;;;;;;;;;5031446;28;20150;-59
2023/01/04 10:10:58;;;;;;;1999.90;999.90;;;;;;;;;;5031785;28;20128;-59
2023/01/04 10:13:38;;;;;;;1999.90;999.90;;;;;;;;;;5031075;28;20568;-56
2023/01/04 10:16:15;;;;;;;1999.90;999.90;;;;;;;;;;5031325;28;20049;-60
2023/01/04 10:18:48;;;;;;;1999.90;999.90;;;;;;;;;;5030126;28;20132;-59
2023/01/04 10:21:23;;;;;;;1999.90;999.90;;;;;;;;;;5030726;28;20140;-59
2023/01/04 10:24:01;;;;;;;1999.90;999.90;;;;;;;;;;5030849;28;20047;-59
2023/01/04 10:26:32;;;;;;;1999.90;999.90;;;;;;;;;;5030748;28;20136;-60
2023/01/04 10:29:26;;;;;;;1999.90;999.90;;;;;;;;;;5029978;28;20136;-59
2023/01/04 10:31:56;;;;;;;1999.90;999.90;;;;;;;;;;5031392;28;20054;-60
2023/01/04 10:34:25;;;;;;;1999.90;999.90;;;;;;;;;;5029535;28;20080;-60
2023/01/04 10:36:54;;;;;;;1999.90;999.90;;;;;;;;;;5030276;28;20132;-60
2023/01/04 10:39:22;;;;;;;1999.90;999.90;;;;;;;;;;5031144;28;20168;-59
2023/01/04 10:41:52;;;;;;;1999.90;999.90;;;;;;;;;;5030329;28;20081;-59
2023/01/04 10:44:25;;;;;;;1999.90;999.90;;;;;;;;;;5030537;28;20128;-59
2023/01/04 10:47:00;;;;;;;1999.90;999.90;;;;;;;;;;5031014;28;20052;-59
2023/01/04 10:49:33;;;;;;;1999.90;999.90;;;;;;;;;;5029484;28;20056;-60
2023/01/04 10:52:06;;;;;;;1999.90;999.90;;;;;;;;;;5030042;28;20077;-58
2023/01/04 10:54:38;;;;;;;1999.90;999.90;;;;;;;;;;5029177;28;20053;-59
2023/01/04 10:57:08;;;;;;;1999.90;999.90;;;;;;;;;;5030252;28;20045;-60
2023/01/04 10:59:38;;;;;;;1999.90;999.90;;;;;;;;;;5028733;28;20056;-60
2023/01/04 11:02:15;;;;;;;1999.90;999.90;;;;;;;;;;5030414;28;20140;-59
2023/01/04 11:04:45;;;;;;;1999.90;999.90;;;;;;;;;;5028891;28;20556;-60
2023/01/04 11:07:15;;;;;;;1999.90;999.90;;;;;;;;;;5030357;28;20136;-59
2023/01/04 11:09:45;;;;;;;1999.90;999.90;;;;;;;;;;5028404;28;20763;-59
2023/01/04 11:12:13;;;;;;;1999.90;999.90;;;;;;;;;;5029908;28;20112;-60
2023/01/04 11:14:40;;;;;;;1999.90;999.90;;;;;;;;;;5027468;28;20074;-59
2023/01/04 11:17:09;;;;;;;1999.90;999.90;;;;;;;;;;5030737;28;20128;-60
2023/01/04 11:19:35;;;;;;;1999.90;999.90;;;;;;;;;;5030382;28;20487;-59
2023/01/04 11:22:07;;;;;;;1999.90;999.90;;;;;;;;;;5030132;28;20132;-59
2023/01/04 11:24:34;;;;;;;1999.90;999.90;;;;;;;;;;5030158;28;20132;-60
2023/01/04 11:27:04;;;;;;;1999.90;999.90;;;;;;;;;;5030099;28;20049;-59
2023/01/04 11:29:35;;;;;;;1999.90;999.90;;;;;;;;;;5029685;28;20172;-59
2023/01/04 11:32:06;;;;;;;1999.90;999.90;;;;;;;;;;5028800;28;20076;-60
2023/01/04 11:34:52;;;;;;;1999.90;999.90;;;;;;;;;;5030031;28;20125;-60
2023/01/04 11:37:28;;;;;;;1999.90;999.90;;;;;;;;;;5030035;28;20132;-60
2023/01/04 11:40:19;;;;;;;1999.90;999.90;;;;;;;;;;5029706;28;20144;-59
2023/01/04 11:42:48;;;;;;;1999.90;999.90;;;;;;;;;;5029996;28;20122;-59
2023/01/04 11:45:20;;;;;;;1999.90;999.90;;;;;;;;;;5028426;28;20108;-60
2023/01/04 11:47:48;;;;;;;1999.90;999.90;;;;;;;;;;5028318;28;20053;-59
2023/01/04 11:50:34;;;;;;;1999.90;999.90;;;;;;;;;;5028534;28;20057;-59
2023/01/04 11:53:01;;;;;;;1999.90;999.90;;;;;;;;;;5029056;28;20061;-59
2023/01/04 11:55:29;;;;;;;1999.90;999.90;;;;;;;;;;5029422;28;20152;-59
2023/01/04 11:58:06;;;;;;;1999.90;999.90;;;;;;;;;;5029475;28;20084;-59
2023/01/04 12:00:32;;;;;;;1999.90;999.90;;;;;;;;;;5029487;28;20045;-57
2023/01/04 12:03:11;;;;;;;1999.90;999.90;;;;;;;;;;5029458;28;20105;-60
2023/01/04 12:05:39;;;;;;;1999.90;999.90;;;;;;;;;;5028266;28;20092;-60
2023/01/04 12:08:05;;;;;;;1999.90;999.90;;;;;;;;;;5028433;28;20148;-59
2023/01/04 12:10:33;;;;;;;1999.90;999.90;;;;;;;;;;5028050;28;20128;-60
2023/01/04 12:13:01;;;;;;;1999.90;999.90;;;;;;;;;;5027649;28;20053;-59
2023/01/04 12:15:32;;;;;;;1999.90;999.90;;;;;;;;;;5029450;28;20131;-60
2023/01/04 12:18:02;;;;;;;1999.90;999.90;;;;;;;;;;5029147;28;20063;-59
2023/01/04 12:20:29;;;;;;;1999.90;999.90;;;;;;;;;;5027843;28;20092;-60
2023/01/04 12:22:57;;;;;;;1999.90;999.90;;;;;;;;;;5029675;28;20153;-59
2023/01/04 12:25:32;;;;;;;1999.90;999.90;;;;;;;;;;5028755;28;20051;-59
2023/01/04 12:27:58;;;;;;;1999.90;999.90;;;;;;;;;;5019953;28;20046;-59
2023/01/04 12:30:37;;;;;;;1999.90;999.90;;;;;;;;;;5029235;28;20133;-59
2023/01/04 12:33:36;;;;;;;1999.90;999.90;;;;;;;;;;5028688;28;20474;-58
2023/01/04 12:36:05;;;;;;;1999.90;999.90;;;;;;;;;;5028665;28;20469;-58
2023/01/04 12:39:02;;;;;;;1999.90;999.90;;;;;;;;;;5028806;28;20065;-60
2023/01/04 12:42:10;;;;;;;1999.90;999.90;;;;;;;;;;5028977;28;20080;-60
2023/01/04 12:45:14;;;;;;;1999.90;999.90;;;;;;;;;;5028719;28;20128;-59
2023/01/04 12:50:29;;;;;;;1999.90;999.90;;;;;;;;;;5027911;28;20065;-59
2023/01/04 12:52:58;;;;;;;1999.90;999.90;;;;;;;;;;5028674;28;20049;-60
2023/01/04 12:55:51;;;;;;;1999.90;999.90;;;;;;;;;;5029339;28;20144;-59
2023/01/04 12:59:07;;;;;;;1999.90;999.90;;;;;;;;;;5028288;28;20468;-60
2023/01/04 13:01:34;;;;;;;1999.90;999.90;;;;;;;;;;5028809;28;20071;-60
2023/01/04 13:04:03;;;;;;;1999.90;999.90;;;;;;;;;;5028514;28;20084;-59
2023/01/04 13:06:32;;;;;;;1999.90;999.90;;;;;;;;;;5028687;28;20132;-59
2023/01/04 13:08:58;;;;;;;1999.90;999.90;;;;;;;;;;5027754;28;20057;-59
2023/01/04 13:11:41;;;;;;;1999.90;999.90;;;;;;;;;;5029081;28;20046;-59
2023/01/04 13:14:10;;;;;;;1999.90;999.90;;;;;;;;;;5029118;28;20092;-59
2023/01/04 13:16:43;;;;;;;1999.90;999.90;;;;;;;;;;5027466;28;20132;-60
2023/01/04 13:19:12;;;;;;;1999.90;999.90;;;;;;;;;;5028786;28;20065;-60
2023/01/04 13:21:40;;;;;;;1999.90;999.90;;;;;;;;;;5028756;28;20456;-60
2023/01/04 13:24:20;;;;;;;1999.90;999.90;;;;;;;;;;5029077;28;20132;-59
2023/01/04 13:26:48;;;;;;;1999.90;999.90;;;;;;;;;;5032626;28;20128;-59
2023/01/04 13:29:17;;;;;;;1999.90;999.90;;;;;;;;;;5030435;28;20145;-58
2023/01/04 13:31:50;;;;;;;1999.90;999.90;;;;;;;;;;5031794;28;20081;-60
2023/01/04 13:34:20;;;;;;;1999.90;999.90;;;;;;;;;;5032078;28;20057;-59
2023/01/04 13:36:54;;;;;;;1999.90;999.90;;;;;;;;;;5032587;28;20053;-59
2023/01/04 13:39:20;;;;;;;1999.90;999.90;;;;;;;;;;5031460;28;20056;-60
2023/01/04 13:41:48;;;;;;;1999.90;999.90;;;;;;;;;;5032243;28;20124;-59
2023/01/04 13:44:22;;;;;;;1999.90;999.90;;;;;;;;;;5031975;28;20760;-59
2023/01/04 13:46:50;;;;;;;1999.90;999.90;;;;;;;;;;5032207;28;20144;-60
2023/01/04 13:49:17;;;;;;;1999.90;999.90;;;;;;;;;;5032002;28;20140;-59
2023/01/04 13:51:43;;;;;;;1999.90;999.90;;;;;;;;;;5032002;28;20107;-61
2023/01/04 13:54:18;;;;;;;1999.90;999.90;;;;;;;;;;5031923;28;20144;-60
2023/01/04 13:56:45;;;;;;;1999.90;999.90;;;;;;;;;;5032017;28;20065;-59
2023/01/04 13:59:14;;;;;;;1999.90;999.90;;;;;;;;;;5031557;28;20140;-59
2023/01/04 14:01:42;;;;;;;1999.90;999.90;;;;;;;;;;5031380;28;20049;-59
2023/01/04 14:04:14;;;;;;;1999.90;999.90;;;;;;;;;;5030895;28;20140;-60
2023/01/04 14:06:43;;;;;;;1999.90;999.90;;;;;;;;;;5031757;28;20156;-59
2023/01/04 14:09:15;;;;;;;1999.90;999.90;;;;;;;;;;5031313;28;20045;-60
2023/01/04 14:11:58;;;;;;;1999.90;999.90;;;;;;;;;;5031505;28;20092;-59
2023/01/04 14:14:32;;;;;;;1999.90;999.90;;;;;;;;;;5031861;28;20089;-59
2023/01/04 14:17:14;;;;;;;1999.90;999.90;;;;;;;;;;5031880;28;20067;-60
2023/01/04 14:19:44;;;;;;;1999.90;999.90;;;;;;;;;;5031595;28;20464;-60
2023/01/04 14:22:28;;;;;;;1999.90;999.90;;;;;;;;;;5031581;28;20656;-59
2023/01/04 14:24:57;;;;;;;1999.90;999.90;;;;;;;;;;5031567;28;20167;-59
2023/01/04 14:27:31;;;;;;;1999.90;999.90;;;;;;;;;;5031708;28;20132;-59
2023/01/04 14:29:59;;;;;;;1999.90;999.90;;;;;;;;;;5030970;28;20081;-60
2023/01/04 14:32:26;;;;;;;1999.90;999.90;;;;;;;;;;5031049;28;20050;-58
2023/01/04 14:34:52;;;;;;;1999.90;999.90;;;;;;;;;;5030358;28;20152;-60
2023/01/04 14:37:19;;;;;;;1999.90;999.90;;;;;;;;;;5031438;28;20569;-59
2023/01/04 14:39:45;;;;;;;1999.90;999.90;;;;;;;;;;5031080;28;20168;-59
2023/01/04 14:42:25;;;;;;;1999.90;999.90;;;;;;;;;;5030273;28;20088;-60
2023/01/04 14:44:51;;;;;;;1999.90;999.90;;;;;;;;;;5031206;28;20472;-59